Time;durP1;ratioP1;P1;durP2;ratioP2;P2;SDS_P1;SDS_P2;PMS_P1;PMS_P2;Temp;Humidity;BMP_temperature;BMP_pressure;BME280_temperature;BME280_humidity;BME280_pressure;Samples;Min_cycle;Max_cycle;Signal;HPM_P1;HPM_P2
2022/11/04 00:01:23;;;;;;;8.40;4.43;;;11.50;68.20;;;;;;5085690;27;46279;-65
2022/11/04 00:03:49;;;;;;;5.80;3.90;;;11.50;68.00;;;;;;5085351;27;48105;-64
2022/11/04 00:06:15;;;;;;;8.83;4.93;;;11.50;67.80;;;;;;5083362;27;45894;-65
2022/11/04 00:08:41;;;;;;;7.90;3.80;;;11.50;68.00;;;;;;5088286;27;46456;-64
2022/11/04 00:13:50;;;;;;;6.17;3.70;;;11.40;68.00;;;;;;5083979;27;46712;-65
2022/11/04 00:19:00;;;;;;;4.60;3.50;;;11.40;67.00;;;;;;5085254;27;46507;-65
2022/11/04 00:29:41;;;;;;;4.50;3.00;;;11.30;67.00;;;;;;5082340;27;46573;-66
2022/11/04 00:34:51;;;;;;;6.13;2.70;;;11.20;67.90;;;;;;5088380;27;46715;-66
2022/11/04 00:37:16;;;;;;;4.57;2.53;;;11.20;66.90;;;;;;5089947;27;46343;-64
2022/11/04 00:39:42;;;;;;;3.80;2.40;;;11.10;66.90;;;;;;5084072;27;46603;-65
2022/11/04 00:42:08;;;;;;;3.83;2.30;;;11.10;68.00;;;;;;5087258;27;46607;-65
2022/11/04 00:44:33;;;;;;;6.50;2.40;;;11.10;68.10;;;;;;5087518;27;46412;-65
2022/11/04 00:46:59;;;;;;;3.90;2.20;;;11.10;68.00;;;;;;5087290;27;46440;-66
2022/11/04 00:49:24;;;;;;;4.80;2.60;;;11.10;67.00;;;;;;5091642;27;46370;-66
2022/11/04 00:51:50;;;;;;;3.50;2.10;;;11.10;68.10;;;;;;5084331;27;46599;-64
2022/11/04 00:54:15;;;;;;;4.13;2.50;;;11.00;67.90;;;;;;5085369;27;46997;-64
2022/11/04 00:56:41;;;;;;;5.70;2.40;;;11.00;68.10;;;;;;5088744;27;46376;-65
2022/11/04 00:59:07;;;;;;;4.80;2.30;;;11.00;67.00;;;;;;5083557;27;46428;-64
2022/11/04 01:01:32;;;;;;;2.63;2.10;;;11.00;68.00;;;;;;5083165;27;46235;-65
2022/11/04 01:03:58;;;;;;;3.73;2.20;;;10.90;67.90;;;;;;5086630;27;47272;-65
2022/11/04 01:06:25;;;;;;;6.50;2.90;;;10.90;67.80;;;;;;5087068;27;46417;-65
2022/11/04 01:08:55;;;;;;;3.00;1.83;;;;;;;;;;5085131;27;47445;-66
2022/11/04 01:11:20;;;;;;;3.37;2.13;;;10.90;66.70;;;;;;5084290;27;46533;-66
2022/11/04 01:13:49;;;;;;;4.83;2.37;;;10.90;67.60;;;;;;5084362;27;46392;-65
2022/11/04 01:16:15;;;;;;;4.90;2.50;;;10.90;67.60;;;;;;5089410;27;46799;-66
2022/11/04 01:18:41;;;;;;;2.93;1.97;;;10.90;67.50;;;;;;5085532;27;46405;-65
2022/11/04 01:21:09;;;;;;;4.43;2.50;;;10.90;66.40;;;;;;5087320;27;46426;-66
2022/11/04 01:23:34;;;;;;;3.60;1.73;;;10.80;67.40;;;;;;5084273;27;46789;-65
2022/11/04 01:26:00;;;;;;;8.87;2.00;;;10.80;67.30;;;;;;5085406;27;46435;-66
2022/11/04 01:28:26;;;;;;;3.67;1.87;;;10.80;67.30;;;;;;5085180;27;46438;-66
2022/11/04 01:30:51;;;;;;;2.47;1.50;;;10.70;66.20;;;;;;5084783;27;46380;-66
2022/11/04 01:33:17;;;;;;;2.57;1.60;;;10.70;67.30;;;;;;5087736;27;46433;-64
2022/11/04 01:35:43;;;;;;;6.57;1.57;;;10.70;67.20;;;;;;5084405;27;46249;-65
2022/11/04 01:38:08;;;;;;;3.27;1.40;;;10.70;67.20;;;;;;5089047;27;46805;-66
2022/11/04 01:40:38;;;;;;;2.73;1.60;;;10.60;66.10;;;;;;5084003;27;46614;-65
2022/11/04 01:43:17;;;;;;;2.60;1.53;;;10.60;67.20;;;;;;5086079;27;46381;-67
2022/11/04 01:45:47;;;;;;;2.20;1.20;;;10.60;67.00;;;;;;5086388;27;47317;-66
2022/11/04 01:48:30;;;;;;;1.70;1.10;;;10.50;66.90;;;;;;5082524;27;46481;-65
2022/11/04 01:50:57;;;;;;;2.10;1.20;;;10.50;65.80;;;;;;5077456;27;46649;-66
2022/11/04 01:53:36;;;;;;;1.80;1.00;;;10.50;66.80;;;;;;5085627;27;47308;-65
2022/11/04 01:56:10;;;;;;;1.70;1.00;;;10.50;66.70;;;;;;5087006;27;46318;-66
2022/11/04 01:58:39;;;;;;;9.03;1.20;;;10.50;66.40;;;;;;5084383;27;46451;-66
2022/11/04 02:01:04;;;;;;;1.97;0.93;;;10.50;65.20;;;;;;5084116;27;46242;-64
2022/11/04 02:03:44;;;;;;;1.83;1.00;;;10.50;66.20;;;;;;5084825;27;46660;-66
2022/11/04 02:06:10;;;;;;;2.07;1.10;;;10.50;65.80;;;;;;5087968;27;46391;-65
2022/11/04 02:08:38;;;;;;;2.40;1.20;;;10.50;65.80;;;;;;5085971;27;46471;-66
2022/11/04 02:11:03;;;;;;;8.10;1.20;;;10.40;64.70;;;;;;5077947;27;46465;-66
2022/11/04 02:13:32;;;;;;;3.23;1.20;;;10.40;65.90;;;;;;5081111;27;47645;-65
2022/11/04 02:16:11;;;;;;;3.37;1.40;;;10.40;65.80;;;;;;5081439;27;46413;-66
2022/11/04 02:18:52;;;;;;;1.53;0.80;;;10.40;65.80;;;;;;5089836;27;46355;-64
2022/11/04 02:21:42;;;;;;;1.40;0.80;;;10.40;64.60;;;;;;5086249;27;46351;-66
2022/11/04 02:24:33;;;;;;;1.60;0.90;;;10.40;65.50;;;;;;5085972;27;46586;-64
2022/11/04 02:27:10;;;;;;;4.03;1.00;;;10.40;65.40;;;;;;5086213;27;46316;-64
2022/11/04 02:29:51;;;;;;;1.90;1.10;;;10.40;64.40;;;;;;5082843;27;46403;-65
2022/11/04 02:32:32;;;;;;;2.90;1.00;;;10.30;65.30;;;;;;5085487;27;46413;-66
2022/11/04 02:35:09;;;;;;;1.63;0.90;;;10.40;65.30;;;;;;5077792;27;46627;-66
2022/11/04 02:37:37;;;;;;;2.53;1.57;;;10.40;65.10;;;;;;5082436;27;46363;-64
2022/11/04 02:40:15;;;;;;;1.53;0.80;;;10.30;64.10;;;;;;5081188;27;46401;-65
2022/11/04 02:43:05;;;;;;;1.53;0.70;;;10.30;65.10;;;;;;5087007;27;46372;-67
2022/11/04 02:45:48;;;;;;;2.33;0.93;;;10.30;64.70;;;;;;5079683;27;46516;-65
2022/11/04 02:48:42;;;;;;;1.80;1.00;;;10.40;64.80;;;;;;5076318;27;46424;-65
2022/11/04 02:51:20;;;;;;;2.80;1.00;;;10.40;63.70;;;;;;5082237;27;46458;-65
2022/11/04 02:53:52;;;;;;;1.50;0.80;;;10.50;64.80;;;;;;5085163;27;46423;-65
2022/11/04 02:56:20;;;;;;;1.57;0.90;;;10.50;64.40;;;;;;5084980;27;46609;-65
2022/11/04 02:58:53;;;;;;;2.53;0.93;;;10.50;64.30;;;;;;5079686;27;46705;-65
2022/11/04 03:01:21;;;;;;;1.63;0.90;;;10.50;63.20;;;;;;5082084;27;46461;-64
2022/11/04 03:03:51;;;;;;;2.87;1.00;;;10.40;63.30;;;;;;5086850;27;46372;-65
2022/11/04 03:06:20;;;;;;;1.80;0.83;;;10.40;64.30;;;;;;5079260;27;46631;-65
2022/11/04 03:08:50;;;;;;;1.80;1.00;;;10.40;64.40;;;;;;5087922;27;46499;-66
2022/11/04 03:11:22;;;;;;;2.17;0.93;;;10.30;63.60;;;;;;5080438;27;46539;-65
2022/11/04 03:14:03;;;;;;;1.60;0.83;;;10.30;64.70;;;;;;5080413;27;46511;-65
2022/11/04 03:16:41;;;;;;;2.60;0.77;;;10.20;64.60;;;;;;5081819;27;46702;-65
2022/11/04 03:19:25;;;;;;;1.33;0.80;;;10.20;63.60;;;;;;5080043;27;46573;-64
2022/11/04 03:21:59;;;;;;;4.70;1.00;;;10.20;64.70;;;;;;5081144;27;46534;-65
2022/11/04 03:24:26;;;;;;;1.80;0.90;;;10.20;64.60;;;;;;5081044;27;46492;-64
2022/11/04 03:26:59;;;;;;;1.90;1.20;;;10.20;64.70;;;;;;5087897;27;46645;-65
2022/11/04 03:29:49;;;;;;;1.77;0.80;;;10.10;63.50;;;;;;5088593;27;46555;-66
2022/11/04 03:32:20;;;;;;;1.40;0.80;;;10.10;64.60;;;;;;5081349;27;46414;-64
2022/11/04 03:34:46;;;;;;;1.73;1.03;;;10.20;64.60;;;;;;5082772;27;46585;-65
2022/11/04 03:37:12;;;;;;;1.70;0.90;;;10.10;64.20;;;;;;5084480;27;46655;-65
2022/11/04 03:39:38;;;;;;;1.20;0.70;;;10.10;63.00;;;;;;5084507;27;46403;-65
2022/11/04 03:42:18;;;;;;;2.10;0.80;;;10.10;64.20;;;;;;5086404;27;46492;-65
2022/11/04 03:44:49;;;;;;;2.47;1.00;;;10.10;64.20;;;;;;5083015;27;45858;-66
2022/11/04 03:47:17;;;;;;;1.93;0.87;;;10.10;63.90;;;;;;5087478;27;46661;-65
2022/11/04 03:49:45;;;;;;;1.60;0.90;;;10.00;62.70;;;;;;5088515;27;46369;-65
2022/11/04 03:52:11;;;;;;;3.00;0.93;;;10.00;65.00;;;;;;5088363;27;46427;-64
2022/11/04 03:54:37;;;;;;;1.40;0.80;;;10.00;63.80;;;;;;5084973;27;46523;-65
2022/11/04 03:57:27;;;;;;;1.30;0.70;;;10.00;63.60;;;;;;5080549;27;47573;-67
2022/11/04 04:00:14;;;;;;;2.70;1.20;;;10.00;62.60;;;;;;5084591;27;46371;-66
2022/11/04 04:03:01;;;;;;;1.87;0.80;;;10.00;63.70;;;;;;5087683;27;45894;-64
2022/11/04 04:05:35;;;;;;;1.93;1.00;;;9.90;64.30;;;;;;5084546;27;46435;-65
2022/11/04 04:08:37;;;;;;;2.10;0.97;;;9.90;64.40;;;;;;5089096;27;46360;-65
2022/11/04 04:11:05;;;;;;;1.57;0.80;;;9.80;63.40;;;;;;5078458;27;46414;-65
2022/11/04 04:13:37;;;;;;;3.10;0.90;;;9.80;64.60;;;;;;5086432;27;46452;-65
2022/11/04 04:16:14;;;;;;;3.10;1.10;;;9.80;64.50;;;;;;5087790;27;46815;-67
2022/11/04 04:19:03;;;;;;;2.70;0.97;;;9.80;63.20;;;;;;5084661;27;46747;-65
2022/11/04 04:21:37;;;;;;;1.47;0.80;;;9.80;64.30;;;;;;5070626;27;46448;-65
2022/11/04 04:29:36;;;;;;;1.60;0.80;;;9.90;62.70;;;;;;5086579;27;46360;-66
2022/11/04 04:32:04;;;;;;;1.43;0.73;;;9.90;63.70;;;;;;5085202;27;46511;-64
2022/11/04 04:34:32;;;;;;;2.87;0.90;;;10.00;62.60;;;;;;5087102;27;46411;-64
2022/11/04 04:37:00;;;;;;;2.47;0.97;;;10.00;61.30;;;;;;5083935;27;46464;-67
2022/11/04 04:45:05;;;;;;;3.00;0.90;;;10.00;62.30;;;;;;5089016;27;46420;-66
2022/11/04 04:47:45;;;;;;;1.53;0.73;;;10.00;62.30;;;;;;5081666;27;46872;-66
2022/11/04 04:50:15;;;;;;;3.33;1.20;;;10.00;61.10;;;;;;5079524;27;46376;-65
2022/11/04 04:52:44;;;;;;;2.50;0.87;;;10.00;62.10;;;;;;5078828;27;46369;-65
2022/11/04 04:55:10;;;;;;;2.23;1.00;;;10.10;63.30;;;;;;5086964;27;45856;-65
2022/11/04 04:57:36;;;;;;;3.33;0.90;;;10.00;60.90;;;;;;5076138;27;46363;-65
2022/11/04 05:00:04;;;;;;;1.67;0.97;;;10.00;60.80;;;;;;5083643;27;46366;-65
2022/11/04 05:02:29;;;;;;;1.50;0.70;;;10.00;61.10;;;;;;5085432;27;46401;-64
2022/11/04 05:04:55;;;;;;;1.40;0.80;;;10.00;62.10;;;;;;5085653;27;45790;-64
2022/11/04 05:07:21;;;;;;;1.67;0.77;;;10.00;62.20;;;;;;5088492;27;45843;-65
2022/11/04 05:09:47;;;;;;;2.17;0.80;;;9.90;62.10;;;;;;5085265;27;46492;-66
2022/11/04 05:12:12;;;;;;;1.80;0.90;;;10.00;62.30;;;;;;5088285;27;46320;-66
2022/11/04 05:14:38;;;;;;;3.33;0.90;;;9.90;63.40;;;;;;5084485;27;46271;-65
2022/11/04 05:17:04;;;;;;;1.37;0.73;;;9.90;63.50;;;;;;5087822;27;46453;-65
2022/11/04 05:19:29;;;;;;;1.67;0.83;;;9.90;62.70;;;;;;5080562;27;46506;-65
2022/11/04 05:21:55;;;;;;;1.70;0.80;;;9.80;63.60;;;;;;5084569;27;46409;-65
2022/11/04 05:24:20;;;;;;;1.60;0.70;;;9.80;63.70;;;;;;5083449;27;46132;-65
2022/11/04 05:26:46;;;;;;;4.43;1.00;;;9.80;63.60;;;;;;5083783;27;46476;-63
2022/11/04 05:29:12;;;;;;;11.40;5.43;;;9.80;62.80;;;;;;5086894;27;46425;-65
2022/11/04 05:31:38;;;;;;;8.53;4.67;;;9.90;63.70;;;;;;5080800;27;46376;-64
2022/11/04 05:34:04;;;;;;;2.27;1.07;;;9.90;63.70;;;;;;5078836;27;46405;-64
2022/11/04 05:36:32;;;;;;;2.07;0.77;;;9.90;62.60;;;;;;5083507;27;46496;-63
2022/11/04 05:38:58;;;;;;;7.23;1.67;;;;;;;;;;5085493;27;46529;-64
2022/11/04 05:41:26;;;;;;;5.17;2.67;;;10.00;61.40;;;;;;5082940;27;46382;-63
2022/11/04 05:43:57;;;;;;;5.00;2.67;;;10.00;62.50;;;;;;5082941;27;46346;-65
2022/11/04 05:46:23;;;;;;;3.87;2.20;;;10.00;62.50;;;;;;5088130;27;46559;-64
2022/11/04 05:48:49;;;;;;;1.70;0.90;;;10.00;62.60;;;;;;5084148;27;47553;-63
2022/11/04 05:51:17;;;;;;;2.90;0.90;;;10.00;61.70;;;;;;5083095;27;46396;-63
2022/11/04 05:53:42;;;;;;;2.10;0.87;;;9.90;63.90;;;;;;5083816;27;45850;-65
2022/11/04 05:56:08;;;;;;;3.30;0.77;;;9.70;64.60;;;;;;5087214;27;46433;-65
2022/11/04 05:58:34;;;;;;;1.20;0.70;;;9.60;65.10;;;;;;5083113;27;46259;-63
2022/11/04 06:01:23;;;;;;;2.07;1.00;;;9.50;64.60;;;;;;5085492;27;45861;-63
2022/11/04 06:03:49;;;;;;;3.90;1.33;;;9.50;64.80;;;;;;5076667;27;46357;-63
2022/11/04 06:06:15;;;;;;;6.30;1.27;;;9.50;65.70;;;;;;5087206;27;45961;-63
2022/11/04 06:08:40;;;;;;;5.13;1.87;;;9.50;65.30;;;;;;5085534;27;46412;-66
2022/11/04 06:11:06;;;;;;;1.63;0.80;;;9.60;64.10;;;;;;5084354;27;46442;-63
2022/11/04 06:13:32;;;;;;;4.40;1.33;;;9.60;65.10;;;;;;5086550;27;46335;-63
2022/11/04 06:15:57;;;;;;;6.40;1.60;;;9.50;65.50;;;;;;5085436;27;46920;-63
2022/11/04 06:18:23;;;;;;;3.73;1.03;;;9.50;65.20;;;;;;5082905;27;46502;-64
2022/11/04 06:20:48;;;;;;;3.50;1.70;;;9.50;64.60;;;;;;5081197;27;46404;-63
2022/11/04 06:23:14;;;;;;;2.07;1.07;;;9.60;65.50;;;;;;5088710;27;45801;-65
2022/11/04 06:25:40;;;;;;;2.23;1.00;;;9.60;65.40;;;;;;5083195;27;46706;-64
2022/11/04 06:28:05;;;;;;;3.83;1.10;;;9.60;65.20;;;;;;5083035;27;47231;-64
2022/11/04 06:30:31;;;;;;;1.70;0.90;;;9.60;64.60;;;;;;5080289;27;46510;-66
2022/11/04 06:32:57;;;;;;;1.97;0.90;;;9.60;65.80;;;;;;5083631;27;46379;-64
2022/11/04 06:35:22;;;;;;;1.90;0.90;;;9.50;66.20;;;;;;5083046;27;46602;-63
2022/11/04 06:37:48;;;;;;;3.63;0.87;;;9.40;66.90;;;;;;5083146;27;49515;-66
2022/11/04 06:40:13;;;;;;;1.90;1.00;;;9.30;66.70;;;;;;5085700;27;46323;-64
2022/11/04 06:42:41;;;;;;;2.60;1.30;;;9.30;68.10;;;;;;5081216;27;46325;-64
2022/11/04 06:45:07;;;;;;;2.03;1.13;;;9.20;68.30;;;;;;5086698;27;46378;-63
2022/11/04 06:47:33;;;;;;;2.33;0.90;;;9.20;68.30;;;;;;5084799;27;47480;-63
2022/11/04 06:49:58;;;;;;;2.07;1.10;;;9.30;67.10;;;;;;5083182;27;46401;-63
2022/11/04 06:52:24;;;;;;;1.40;0.80;;;9.30;68.10;;;;;;5080920;27;46341;-64
2022/11/04 06:54:49;;;;;;;1.70;0.93;;;9.30;68.00;;;;;;5084408;27;46362;-65
2022/11/04 06:57:15;;;;;;;1.73;0.80;;;9.30;67.80;;;;;;5084133;27;46384;-67
2022/11/04 06:59:40;;;;;;;5.90;1.13;;;9.40;66.40;;;;;;5087486;27;46167;-64
2022/11/04 07:02:09;;;;;;;2.10;0.73;;;9.40;67.40;;;;;;5082327;27;46310;-63
2022/11/04 07:04:36;;;;;;;3.03;1.10;;;9.40;67.10;;;;;;5083618;27;46562;-65
2022/11/04 07:07:01;;;;;;;3.60;1.00;;;9.50;67.00;;;;;;5084994;27;46707;-63
2022/11/04 07:09:27;;;;;;;6.10;1.53;;;9.50;65.80;;;;;;5080942;27;46396;-66
2022/11/04 07:11:52;;;;;;;2.93;1.30;;;9.40;66.80;;;;;;5087999;27;46469;-64
2022/11/04 07:14:18;;;;;;;3.97;1.03;;;9.50;66.60;;;;;;5083115;27;47076;-66
2022/11/04 07:16:43;;;;;;;2.37;1.10;;;9.60;66.30;;;;;;5080225;27;46448;-63
2022/11/04 07:19:09;;;;;;;5.70;2.17;;;9.70;65.10;;;;;;5085649;27;46517;-63
2022/11/04 07:21:35;;;;;;;6.03;2.13;;;9.70;66.00;;;;;;5083613;27;46456;-64
2022/11/04 07:24:01;;;;;;;4.00;1.40;;;9.70;65.80;;;;;;5080519;27;46492;-64
2022/11/04 07:26:26;;;;;;;3.23;1.30;;;9.70;65.90;;;;;;5083464;27;46530;-64
2022/11/04 07:28:52;;;;;;;4.70;1.60;;;9.70;66.00;;;;;;5081135;27;46326;-64
2022/11/04 07:31:18;;;;;;;4.20;1.53;;;9.70;65.00;;;;;;5085732;27;46464;-65
2022/11/04 07:33:48;;;;;;;5.13;1.50;;;9.80;66.00;;;;;;5082917;27;46511;-63
2022/11/04 07:36:15;;;;;;;9.47;1.60;;;9.80;66.00;;;;;;5083727;27;47418;-63
2022/11/04 07:38:41;;;;;;;2.00;1.10;;;9.80;65.90;;;;;;5080631;27;46305;-63
2022/11/04 07:41:07;;;;;;;5.03;1.20;;;9.80;65.00;;;;;;5081303;27;46325;-65
2022/11/04 07:43:33;;;;;;;3.23;1.40;;;9.80;65.90;;;;;;5086466;27;46390;-63
2022/11/04 07:46:04;;;;;;;4.60;1.40;;;9.80;65.80;;;;;;5085165;27;46541;-64
2022/11/04 07:48:30;;;;;;;2.00;1.13;;;9.80;65.90;;;;;;5083808;27;46698;-64
2022/11/04 07:50:58;;;;;;;8.50;6.30;;;9.80;64.90;;;;;;5083971;27;46251;-65
2022/11/04 07:53:24;;;;;;;8.93;8.13;;;9.70;65.90;;;;;;5082856;27;46360;-63
2022/11/04 07:55:50;;;;;;;7.30;4.93;;;9.80;66.10;;;;;;5083765;27;47508;-64
2022/11/04 07:58:18;;;;;;;6.20;3.33;;;9.80;66.10;;;;;;5082228;27;46410;-64
2022/11/04 08:00:43;;;;;;;3.17;1.63;;;9.80;65.20;;;;;;5081712;27;46424;-63
2022/11/04 08:03:09;;;;;;;3.27;2.13;;;9.80;66.40;;;;;;5082606;27;46387;-64
2022/11/04 08:05:35;;;;;;;3.43;2.30;;;9.70;67.80;;;;;;5081097;27;49030;-63
2022/11/04 08:08:00;;;;;;;5.50;3.43;;;9.80;66.50;;;;;;5085097;27;46666;-64
2022/11/04 08:10:26;;;;;;;3.60;2.70;;;9.80;65.30;;;;;;5083214;27;46464;-63
2022/11/04 08:12:52;;;;;;;3.43;2.47;;;9.90;66.40;;;;;;5082021;27;46438;-64
2022/11/04 08:15:18;;;;;;;5.57;3.53;;;9.90;66.30;;;;;;5087801;27;46622;-64
2022/11/04 08:17:43;;;;;;;5.40;3.63;;;9.90;65.20;;;;;;5088162;27;46452;-63
2022/11/04 08:20:09;;;;;;;7.17;2.83;;;10.00;64.10;;;;;;5089778;27;46497;-66
2022/11/04 08:22:35;;;;;;;3.80;2.40;;;10.00;64.80;;;;;;5083705;27;46368;-63
2022/11/04 08:25:00;;;;;;;5.57;2.17;;;10.00;64.60;;;;;;5083283;27;46841;-65
2022/11/04 08:27:26;;;;;;;5.10;2.70;;;10.00;64.70;;;;;;5089129;27;46377;-64
2022/11/04 08:29:51;;;;;;;3.07;1.90;;;10.00;64.00;;;;;;5084298;27;46475;-63
2022/11/04 08:32:17;;;;;;;3.03;2.03;;;10.00;64.90;;;;;;5089364;27;46567;-63
2022/11/04 08:34:43;;;;;;;5.83;2.30;;;10.00;65.00;;;;;;5080095;27;46476;-64
2022/11/04 08:37:12;;;;;;;4.23;2.10;;;10.00;65.10;;;;;;5088289;27;46403;-63
2022/11/04 08:39:38;;;;;;;4.00;2.00;;;10.00;63.60;;;;;;5085849;27;46613;-63
2022/11/04 08:42:04;;;;;;;2.57;1.80;;;10.00;64.50;;;;;;5083186;27;46456;-64
2022/11/04 08:44:30;;;;;;;3.00;1.50;;;10.10;64.60;;;;;;5083026;27;48436;-63
2022/11/04 08:46:55;;;;;;;3.00;2.03;;;10.00;64.40;;;;;;5085788;27;46322;-63
2022/11/04 08:49:21;;;;;;;5.70;2.60;;;10.00;63.50;;;;;;5085307;27;46432;-64
2022/11/04 08:51:53;;;;;;;4.90;2.50;;;10.00;64.50;;;;;;5087476;27;46617;-63
2022/11/04 08:54:18;;;;;;;2.70;1.60;;;10.00;64.40;;;;;;5087885;27;46479;-65
2022/11/04 08:56:44;;;;;;;3.20;1.90;;;10.00;64.40;;;;;;5089998;27;45831;-65
2022/11/04 08:59:10;;;;;;;4.27;2.20;;;10.00;63.50;;;;;;5085586;27;46499;-62
2022/11/04 09:01:36;;;;;;;4.47;3.10;;;10.00;64.50;;;;;;5081807;27;46631;-63
2022/11/04 09:04:03;;;;;;;5.40;3.30;;;10.10;64.50;;;;;;5085722;27;46413;-64
2022/11/04 09:06:33;;;;;;;6.00;2.87;;;10.10;64.50;;;;;;5085621;27;46346;-64
2022/11/04 09:09:03;;;;;;;4.17;3.17;;;10.20;64.60;;;;;;5087684;27;46510;-64
2022/11/04 09:11:30;;;;;;;7.90;4.93;;;10.20;64.70;;;;;;5080240;27;45961;-63
2022/11/04 09:14:00;;;;;;;6.40;2.60;;;10.20;64.60;;;;;;5083542;27;47123;-63
2022/11/04 09:16:28;;;;;;;3.97;3.33;;;10.20;64.60;;;;;;5117380;27;46311;-63
2022/11/04 09:18:55;;;;;;;3.37;2.10;;;10.20;64.70;;;;;;5086950;27;46346;-64
2022/11/04 09:21:21;;;;;;;3.33;2.10;;;10.20;63.60;;;;;;5086463;27;46649;-63
2022/11/04 09:23:47;;;;;;;3.57;2.30;;;10.30;64.70;;;;;;5080295;27;46487;-64
2022/11/04 09:26:14;;;;;;;4.17;2.17;;;10.40;64.80;;;;;;5085428;27;46486;-63
2022/11/04 09:28:40;;;;;;;3.77;2.13;;;10.40;64.80;;;;;;5086363;27;45935;-63
2022/11/04 09:31:14;;;;;;;2.93;1.80;;;10.50;63.90;;;;;;5091712;27;46480;-63
2022/11/04 09:33:40;;;;;;;7.37;4.37;;;10.50;65.00;;;;;;5081047;27;46797;-67
2022/11/04 09:36:08;;;;;;;7.87;4.23;;;10.60;65.00;;;;;;5086659;27;46420;-63
2022/11/04 09:38:34;;;;;;;23.50;11.00;;;10.60;64.90;;;;;;5115392;27;46326;-65
2022/11/04 09:41:00;;;;;;;7.10;3.30;;;10.60;63.80;;;;;;5082170;27;46399;-63
2022/11/04 09:43:59;;;;;;;5.53;3.17;;;10.50;64.90;;;;;;5083601;27;46600;-65
2022/11/04 09:46:28;;;;;;;8.40;3.60;;;10.50;64.90;;;;;;5088308;27;46408;-63
2022/11/04 09:48:55;;;;;;;10.17;2.83;;;10.60;65.00;;;;;;5080171;27;45867;-63
2022/11/04 09:51:25;;;;;;;4.03;2.60;;;10.60;63.40;;;;;;5086993;27;46432;-66
2022/11/04 09:53:58;;;;;;;5.83;3.80;;;10.70;64.30;;;;;;5083939;27;46467;-64
2022/11/04 09:56:29;;;;;;;5.93;3.60;;;10.70;64.20;;;;;;5084696;27;46431;-64
2022/11/04 09:58:55;;;;;;;3.93;2.50;;;10.70;64.30;;;;;;5084591;27;45895;-66
2022/11/04 10:01:26;;;;;;;6.23;3.00;;;10.70;63.00;;;;;;5081009;27;46354;-67
2022/11/04 10:04:11;;;;;;;6.33;3.90;;;10.70;64.10;;;;;;5086920;27;46102;-65
2022/11/04 10:07:05;;;;;;;6.23;2.83;;;10.70;64.10;;;;;;5084451;27;45821;-64
2022/11/04 10:09:33;;;;;;;3.93;2.60;;;10.70;63.00;;;;;;5084305;27;46388;-63
2022/11/04 10:12:04;;;;;;;2.90;1.93;;;10.70;64.10;;;;;;5085927;27;46555;-65
2022/11/04 10:14:39;;;;;;;3.67;2.03;;;10.70;63.80;;;;;;5084817;27;46383;-64
2022/11/04 10:17:32;;;;;;;2.47;2.00;;;10.70;63.90;;;;;;5086020;27;46462;-64
2022/11/04 10:20:18;;;;;;;3.23;2.40;;;10.70;62.90;;;;;;5082606;27;46410;-66
2022/11/04 10:23:00;;;;;;;3.50;2.60;;;10.80;63.90;;;;;;5082275;27;46580;-63
2022/11/04 10:25:43;;;;;;;4.43;2.80;;;10.90;63.50;;;;;;5083188;27;46479;-66
2022/11/04 10:28:14;;;;;;;10.50;5.13;;;10.90;63.10;;;;;;5081644;27;46382;-64
2022/11/04 10:30:42;;;;;;;3.60;1.93;;;11.10;61.50;;;;;;5081009;27;46361;-65
2022/11/04 10:33:33;;;;;;;5.97;4.00;;;11.30;62.40;;;;;;5082238;27;46446;-63
2022/11/04 10:36:06;;;;;;;8.03;3.47;;;11.30;62.10;;;;;;5085499;27;48425;-65
2022/11/04 10:38:38;;;;;;;6.00;1.73;;;11.30;62.20;;;;;;5084178;27;46571;-63
2022/11/04 10:41:32;;;;;;;4.10;2.50;;;11.30;61.30;;;;;;5084289;27;46352;-63
2022/11/04 10:44:19;;;;;;;4.23;2.30;;;11.40;62.30;;;;;;5080926;27;45937;-65
2022/11/04 10:46:47;;;;;;;3.00;1.57;;;11.50;62.20;;;;;;5086108;27;46627;-63
2022/11/04 10:49:50;;;;;;;2.47;1.43;;;11.70;61.10;;;;;;5082466;27;46444;-64
2022/11/04 10:52:16;;;;;;;5.50;2.07;;;11.70;61.70;;;;;;5084622;27;46672;-64
2022/11/04 10:54:44;;;;;;;2.50;1.40;;;11.70;61.80;;;;;;5082512;27;46459;-63
2022/11/04 10:57:12;;;;;;;3.17;1.40;;;11.80;61.70;;;;;;5084014;27;46690;-64
2022/11/04 10:59:56;;;;;;;3.40;1.40;;;11.90;60.20;;;;;;5083084;27;46438;-65
2022/11/04 11:02:36;;;;;;;2.90;1.60;;;12.00;61.10;;;;;;5082703;27;46732;-63
2022/11/04 11:05:18;;;;;;;2.90;1.53;;;12.00;60.60;;;;;;5083341;27;46416;-63
2022/11/04 11:07:45;;;;;;;13.03;8.00;;;12.00;60.40;;;;;;5080795;27;47051;-64
2022/11/04 11:10:49;;;;;;;10.40;6.83;;;12.00;59.60;;;;;;5080492;27;46380;-64
2022/11/04 11:13:34;;;;;;;3.80;3.10;;;12.10;60.60;;;;;;5084258;27;46335;-63
2022/11/04 11:16:06;;;;;;;3.83;1.93;;;12.00;60.50;;;;;;5085871;27;46199;-65
2022/11/04 11:18:32;;;;;;;5.03;2.93;;;12.00;60.70;;;;;;5084629;27;47093;-64
2022/11/04 11:21:20;;;;;;;5.40;2.83;;;12.00;59.70;;;;;;5079817;27;46471;-64
2022/11/04 11:23:50;;;;;;;3.63;2.30;;;12.10;60.70;;;;;;5081872;27;46566;-65
2022/11/04 11:26:19;;;;;;;3.57;2.30;;;12.00;61.80;;;;;;5117669;27;46907;-64
2022/11/04 11:28:51;;;;;;;4.27;2.47;;;12.10;60.40;;;;;;5082966;27;47374;-64
2022/11/04 11:31:25;;;;;;;5.23;1.60;;;12.00;59.30;;;;;;5079549;27;46535;-64
2022/11/04 11:33:59;;;;;;;3.10;1.60;;;12.10;60.30;;;;;;5082166;27;46406;-64
2022/11/04 11:36:28;;;;;;;2.90;1.70;;;12.10;60.50;;;;;;5083315;27;46672;-63
2022/11/04 11:39:16;;;;;;;3.20;1.67;;;12.00;60.20;;;;;;5085222;27;46817;-64
2022/11/04 11:41:52;;;;;;;4.67;2.30;;;12.00;60.10;;;;;;5085294;27;46360;-64
2022/11/04 11:44:30;;;;;;;4.67;2.20;;;12.00;60.00;;;;;;5082518;27;46366;-64
2022/11/04 11:47:00;;;;;;;3.43;2.20;;;12.00;60.00;;;;;;5079425;27;46365;-64
2022/11/04 11:49:35;;;;;;;7.33;2.43;;;12.00;59.00;;;;;;5085577;27;46549;-63
2022/11/04 11:52:26;;;;;;;4.63;2.43;;;12.00;60.00;;;;;;5083705;27;46260;-65
2022/11/04 11:54:55;;;;;;;4.90;2.40;;;12.00;59.60;;;;;;5081795;27;46161;-63
2022/11/04 11:57:37;;;;;;;4.33;2.43;;;12.00;59.60;;;;;;5084685;27;46699;-63
2022/11/04 12:00:09;;;;;;;3.50;2.10;;;12.00;58.60;;;;;;5080535;27;46527;-63
2022/11/04 12:02:43;;;;;;;3.30;1.77;;;12.00;59.90;;;;;;5087580;27;45973;-63
2022/11/04 12:05:14;;;;;;;3.10;1.73;;;12.00;59.40;;;;;;5077032;27;45873;-63
2022/11/04 12:07:58;;;;;;;2.50;1.37;;;12.10;59.40;;;;;;5086722;27;46396;-65
2022/11/04 12:10:49;;;;;;;4.63;1.30;;;12.10;57.90;;;;;;5082344;27;46642;-64
2022/11/04 12:13:38;;;;;;;2.77;1.60;;;12.10;58.90;;;;;;5086485;27;46439;-64
2022/11/04 12:16:24;;;;;;;2.37;1.27;;;12.10;58.80;;;;;;5090031;27;46460;-65
2022/11/04 12:18:56;;;;;;;3.73;1.57;;;12.10;58.80;;;;;;5082759;27;46383;-64
2022/11/04 12:21:32;;;;;;;5.47;2.10;;;12.10;57.60;;;;;;5084814;27;46322;-65
2022/11/04 12:24:17;;;;;;;5.40;2.60;;;12.20;58.60;;;;;;5085464;27;46386;-67
2022/11/04 12:27:00;;;;;;;14.23;8.73;;;12.10;58.40;;;;;;5085047;27;46420;-65
2022/11/04 12:29:46;;;;;;;12.50;7.70;;;12.20;57.20;;;;;;5074928;27;46964;-65
2022/11/04 12:32:19;;;;;;;5.67;3.53;;;12.20;58.10;;;;;;5117333;27;47931;-65
2022/11/04 12:35:09;;;;;;;5.27;2.60;;;12.20;58.10;;;;;;5084559;27;46392;-66
2022/11/04 12:37:51;;;;;;;4.13;2.80;;;12.20;57.70;;;;;;5085724;27;46347;-65
2022/11/04 12:40:24;;;;;;;6.90;5.30;;;12.20;57.70;;;;;;5089116;27;46356;-67
2022/11/04 12:43:28;;;;;;;7.20;4.80;;;12.20;57.60;;;;;;5082786;27;46487;-65
2022/11/04 12:46:08;;;;;;;49.60;26.23;;;12.20;57.60;;;;;;5053823;27;46973;-63
2022/11/04 12:48:47;;;;;;;6.83;4.17;;;12.20;57.70;;;;;;5089614;27;46431;-64
2022/11/04 12:51:21;;;;;;;14.70;10.37;;;12.20;56.60;;;;;;5082594;27;46391;-64
2022/11/04 12:53:58;;;;;;;6.73;4.80;;;12.20;56.70;;;;;;5082490;27;46703;-65
2022/11/04 12:56:39;;;;;;;7.33;4.60;;;12.20;57.90;;;;;;5088206;27;46137;-64
2022/11/04 12:59:40;;;;;;;4.57;2.83;;;12.20;57.20;;;;;;5086491;27;46334;-64
2022/11/04 13:02:22;;;;;;;6.70;4.10;;;12.20;58.00;;;;;;5079956;27;46798;-64
2022/11/04 13:04:58;;;;;;;9.10;5.73;;;12.20;58.00;;;;;;5080303;27;46954;-63
2022/11/04 13:07:32;;;;;;;6.53;2.93;;;12.20;57.90;;;;;;5086067;27;46519;-65
2022/11/04 13:10:11;;;;;;;8.33;5.63;;;12.20;56.90;;;;;;5076163;27;46291;-65
2022/11/04 13:12:41;;;;;;;8.27;5.10;;;12.20;58.00;;;;;;5082196;27;46813;-64
2022/11/04 13:15:19;;;;;;;5.17;2.70;;;12.20;58.00;;;;;;5083375;27;46534;-67
2022/11/04 13:17:48;;;;;;;4.33;2.80;;;12.20;57.60;;;;;;5083663;27;46817;-64
2022/11/04 13:20:29;;;;;;;5.60;4.10;;;12.20;56.30;;;;;;5082430;27;46531;-64
2022/11/04 13:22:59;;;;;;;8.13;2.87;;;12.40;57.50;;;;;;5086347;27;46845;-66
2022/11/04 13:25:29;;;;;;;8.60;1.97;;;12.10;57.30;;;;;;5082892;27;47311;-67
2022/11/04 13:27:56;;;;;;;5.20;3.20;;;12.10;57.20;;;;;;5087270;27;46505;-64
2022/11/04 13:30:26;;;;;;;7.03;3.60;;;12.10;56.10;;;;;;5080510;27;45927;-67
2022/11/04 13:33:12;;;;;;;5.70;2.60;;;12.00;57.00;;;;;;5085351;27;46629;-66
2022/11/04 13:35:58;;;;;;;5.73;2.80;;;12.00;57.00;;;;;;5082252;27;46069;-65
2022/11/04 13:38:31;;;;;;;8.73;2.00;;;12.00;57.00;;;;;;5083443;27;46369;-67
2022/11/04 13:41:15;;;;;;;3.60;2.20;;;12.00;55.80;;;;;;5080927;27;46000;-66